Time;durP1;ratioP1;P1;durP2;ratioP2;P2;SDS_P1;SDS_P2;PMS_P1;PMS_P2;Temp;Humidity;BMP_temperature;BMP_pressure;BME280_temperature;BME280_humidity;BME280_pressure;Samples;Min_cycle;Max_cycle;Signal;HPM_P1;HPM_P2
2023/09/03 00:10:30;;;;;;;7.40;3.60;;;15.40;99.90;;;;;;5203917;22;20234;-95
2023/09/03 00:15:42;;;;;;;4.45;3.45;;;15.30;99.90;;;;;;5012890;28;20271;-94
2023/09/03 00:18:23;;;;;;;8.02;3.10;;;15.30;99.90;;;;;;5020404;28;20190;-95
2023/09/03 00:20:58;;;;;;;4.38;3.38;;;15.40;99.90;;;;;;5018754;28;20204;-95
2023/09/03 00:23:35;;;;;;;4.53;3.22;;;15.40;99.90;;;;;;5019923;28;20179;-94
2023/09/03 00:26:02;;;;;;;3.67;3.20;;;15.30;99.90;;;;;;5019089;28;20214;-95
2023/09/03 00:36:42;;;;;;;3.70;3.03;;;15.30;99.90;;;;;;4998735;28;20251;-93
2023/09/03 00:40:10;;;;;;;4.85;3.00;;;15.30;99.90;;;;;;5037802;28;20210;-95
2023/09/03 00:42:44;;;;;;;4.78;3.00;;;15.40;99.90;;;;;;5038147;28;20194;-95
2023/09/03 00:48:09;;;;;;;5.30;3.40;;;15.20;99.90;;;;;;4992135;28;20224;-95
2023/09/03 00:59:34;;;;;;;6.00;3.45;;;15.10;99.90;;;;;;4943870;29;20183;-95
2023/09/03 01:20:09;;;;;;;7.47;3.30;;;15.00;99.90;;;;;;4923420;28;20208;-94
2023/09/03 01:23:21;;;;;;;5.55;3.30;;;15.00;99.90;;;;;;4963112;28;20212;-95
2023/09/03 01:36:15;;;;;;;4.75;3.08;;;14.80;99.90;;;;;;5013621;28;20217;-95
2023/09/03 01:41:26;;;;;;;4.05;3.40;;;14.70;99.90;;;;;;5003710;28;20211;-94
2023/09/03 04:23:52;;;;;;;5.20;3.45;;;14.70;99.90;;;;;;5035453;28;20212;-95
2023/09/03 04:29:01;;;;;;;4.65;3.40;;;14.60;99.90;;;;;;4966956;28;20225;-95
2023/09/03 04:31:28;;;;;;;4.10;3.47;;;14.50;99.90;;;;;;5010254;28;20231;-95
2023/09/03 04:33:55;;;;;;;4.13;3.30;;;14.50;99.90;;;;;;5038494;28;20282;-95
2023/09/03 04:36:22;;;;;;;4.50;3.35;;;14.50;99.90;;;;;;5035771;28;20227;-95
2023/09/03 04:38:49;;;;;;;4.30;3.63;;;14.50;99.90;;;;;;5034078;28;20199;-95
2023/09/03 04:41:16;;;;;;;5.90;3.85;;;14.60;99.90;;;;;;5000897;28;20204;-94
2023/09/03 04:46:25;;;;;;;4.50;3.60;;;14.90;99.90;;;;;;5015020;28;20207;-95
2023/09/03 04:48:52;;;;;;;5.90;4.15;;;14.90;99.90;;;;;;5030267;28;20195;-95
2023/09/03 04:51:19;;;;;;;4.18;3.55;;;14.90;99.90;;;;;;5028850;28;20235;-95
2023/09/03 04:53:46;;;;;;;4.90;3.60;;;14.90;99.90;;;;;;5013194;28;20200;-95
2023/09/03 04:56:34;;;;;;;3.92;3.47;;;14.90;99.90;;;;;;5005677;28;20212;-95
2023/09/03 05:02:01;;;;;;;3.60;3.30;;;15.00;99.90;;;;;;5019096;28;20219;-94
2023/09/03 05:07:08;;;;;;;6.97;3.60;;;15.00;99.90;;;;;;5012415;28;20212;-95
2023/09/03 05:09:35;;;;;;;5.32;3.88;;;15.00;99.90;;;;;;5010651;28;20219;-95
2023/09/03 05:12:02;;;;;;;3.83;3.30;;;15.00;99.90;;;;;;5014393;28;20272;-95
2023/09/03 05:17:32;;;;;;;4.28;3.58;;;15.00;99.90;;;;;;4963733;28;20216;-95
2023/09/03 05:19:59;;;;;;;4.15;3.60;;;15.00;99.90;;;;;;4971558;29;20212;-96
2023/09/03 05:25:30;;;;;;;4.60;3.22;;;15.10;99.90;;;;;;4992347;28;20216;-95
2023/09/03 05:32:13;;;;;;;6.47;3.70;;;15.20;99.90;;;;;;4994307;28;20584;-95
2023/09/03 05:41:28;;;;;;;4.10;3.70;;;15.50;99.90;;;;;;4957648;29;20185;-95
2023/09/03 06:00:28;;;;;;;5.78;3.60;;;16.10;99.90;;;;;;5001628;28;20210;-94
2023/09/03 06:06:18;;;;;;;4.60;3.65;;;16.30;99.90;;;;;;5032812;28;20254;-94
2023/09/03 06:08:45;;;;;;;6.32;3.80;;;16.60;99.90;;;;;;5033770;28;20195;-94
2023/09/03 06:11:13;;;;;;;4.45;3.58;;;16.60;99.90;;;;;;5031876;28;20198;-94
2023/09/03 06:16:23;;;;;;;3.80;3.50;;;16.70;99.90;;;;;;5222938;23;20221;-95
2023/09/03 06:18:50;;;;;;;4.78;3.60;;;16.70;99.90;;;;;;5030165;28;20204;-94
2023/09/03 06:21:17;;;;;;;3.53;3.22;;;16.70;99.90;;;;;;5123662;22;20282;-96
2023/09/03 06:26:24;;;;;;;5.10;3.20;;;16.80;99.90;;;;;;4986888;28;20206;-96
2023/09/03 06:31:33;;;;;;;4.60;3.80;;;17.10;99.90;;;;;;5031371;28;20195;-96
2023/09/03 06:34:00;;;;;;;4.30;3.90;;;17.10;99.90;;;;;;5024238;28;20176;-96
2023/09/03 06:36:27;;;;;;;5.35;3.55;;;17.10;99.90;;;;;;5032671;28;20227;-96
2023/09/03 06:41:34;;;;;;;4.07;3.60;;;17.30;99.90;;;;;;5006196;28;20207;-96
2023/09/03 06:46:44;;;;;;;4.25;3.70;;;17.40;99.90;;;;;;5015254;28;20315;-95
2023/09/03 06:49:10;;;;;;;4.53;3.75;;;17.50;99.90;;;;;;5036054;28;20268;-95
2023/09/03 06:56:51;;;;;;;5.20;3.67;;;17.80;99.90;;;;;;5036566;23;20230;-95
2023/09/03 06:59:23;;;;;;;4.45;3.70;;;17.90;99.90;;;;;;5038503;28;20191;-94
2023/09/03 07:02:00;;;;;;;6.05;4.13;;;18.00;99.90;;;;;;5037762;28;20267;-95
2023/09/03 07:04:27;;;;;;;4.32;3.92;;;18.10;99.90;;;;;;5033311;28;20209;-95
2023/09/03 07:06:54;;;;;;;6.97;4.57;;;18.30;99.90;;;;;;5034019;28;20247;-94
2023/09/03 07:09:21;;;;;;;5.78;3.90;;;18.40;99.90;;;;;;5116233;23;20238;-96
2023/09/03 07:11:48;;;;;;;5.20;4.20;;;18.50;99.90;;;;;;5106740;23;20230;-94
2023/09/03 07:19:32;;;;;;;4.80;4.10;;;18.80;99.90;;;;;;5020296;28;20191;-93
2023/09/03 07:24:40;;;;;;;6.82;3.90;;;19.00;99.70;;;;;;5029509;28;20217;-94
2023/09/03 08:03:22;;;;;;;4.30;3.28;;;20.60;94.50;;;;;;4992331;28;20676;-90
2023/09/03 08:05:49;;;;;;;3.20;2.83;;;20.60;93.90;;;;;;4999527;28;20214;-89
2023/09/03 08:08:16;;;;;;;3.88;3.10;;;20.80;94.30;;;;;;4992504;28;20207;-92
2023/09/03 08:24:29;;;;;;;4.03;3.20;;;21.60;90.30;;;;;;4997358;28;20180;-89
2023/09/03 08:26:59;;;;;;;6.70;3.80;;;21.60;89.70;;;;;;5002528;28;20906;-89
2023/09/03 08:29:25;;;;;;;3.45;3.15;;;21.50;90.20;;;;;;5000212;28;20215;-91
2023/09/03 08:31:52;;;;;;;4.65;2.90;;;21.40;90.10;;;;;;4987653;28;20204;-90
2023/09/03 08:34:19;;;;;;;3.33;2.88;;;21.40;88.10;;;;;;4992420;28;20200;-89
2023/09/03 08:36:49;;;;;;;3.42;3.13;;;21.80;87.20;;;;;;5820146;23;20205;-92
2023/09/03 08:39:16;;;;;;;3.70;2.60;;;22.20;79.00;;;;;;5027812;28;20234;-94
2023/09/03 08:44:52;;;;;;;5.25;2.65;;;22.80;74.10;;;;;;5013092;28;20670;-91
2023/09/03 08:47:19;;;;;;;2.83;2.55;;;23.10;69.10;;;;;;5032892;28;20205;-94
2023/09/03 08:50:06;;;;;;;4.00;3.20;;;23.00;66.40;;;;;;5186366;23;20245;-91
2023/09/03 08:55:11;;;;;;;2.85;2.55;;;23.40;56.60;;;;;;5032875;23;20296;-90
2023/09/03 09:00:27;;;;;;;2.83;2.63;;;23.40;53.50;;;;;;5132498;23;20218;-92
2023/09/03 09:02:56;;;;;;;4.45;2.38;;;23.40;56.20;;;;;;5030009;28;20199;-91
2023/09/03 09:05:23;;;;;;;2.97;2.53;;;23.60;50.20;;;;;;5104957;23;20231;-88
2023/09/03 09:13:05;;;;;;;3.58;2.30;;;25.70;34.20;;;;;;5177484;22;20230;-91
2023/09/03 14:47:13;;;;;;;1.88;1.77;;;24.50;27.50;;;;;;5847993;23;21062;-90
2023/09/03 15:49:30;;;;;;;1.70;1.60;;;24.10;30.70;;;;;;5189185;23;20944;-93
2023/09/03 15:51:56;;;;;;;3.47;2.40;;;24.10;30.40;;;;;;5025674;23;20202;-93
2023/09/03 16:15:06;;;;;;;3.15;1.50;;;23.40;30.80;;;;;;4978592;28;20232;-89
2023/09/03 16:17:33;;;;;;;2.17;1.55;;;23.30;31.60;;;;;;4980811;28;20597;-89
2023/09/03 16:20:07;;;;;;;1.73;1.50;;;23.20;32.30;;;;;;4964340;28;20608;-89
2023/09/03 16:23:12;;;;;;;1.70;1.60;;;23.30;32.70;;;;;;4984202;28;20193;-91
2023/09/03 16:25:40;;;;;;;1.50;1.40;;;23.30;33.20;;;;;;4980906;28;20200;-92
2023/09/03 16:28:09;;;;;;;1.70;1.50;;;23.20;32.40;;;;;;4977435;28;20232;-91
2023/09/03 16:30:37;;;;;;;1.63;1.50;;;23.20;32.20;;;;;;4976821;28;20255;-90
2023/09/03 16:33:05;;;;;;;1.70;1.40;;;23.00;34.60;;;;;;4967062;28;20209;-88
2023/09/03 16:38:07;;;;;;;2.20;1.60;;;22.80;35.80;;;;;;4987551;23;20476;-91
2023/09/03 16:40:37;;;;;;;2.70;1.50;;;22.70;36.40;;;;;;4990929;28;20224;-93
2023/09/03 16:43:04;;;;;;;1.60;1.50;;;22.60;37.30;;;;;;4971418;28;20296;-93
2023/09/03 16:45:31;;;;;;;1.60;1.50;;;22.60;38.30;;;;;;4960760;29;20201;-90
2023/09/03 16:47:59;;;;;;;1.70;1.60;;;22.50;37.10;;;;;;4981498;28;20225;-92
2023/09/03 16:50:27;;;;;;;1.63;1.50;;;22.40;38.50;;;;;;4978195;28;20212;-91
2023/09/03 16:52:58;;;;;;;1.95;1.85;;;22.50;37.00;;;;;;4976649;28;20204;-92
2023/09/03 16:55:25;;;;;;;1.60;1.50;;;22.50;39.30;;;;;;4974551;28;20217;-93
2023/09/03 16:57:52;;;;;;;2.85;1.65;;;22.40;41.10;;;;;;4979613;28;20290;-92
2023/09/03 17:00:19;;;;;;;2.35;1.42;;;22.30;41.00;;;;;;4986106;28;20203;-93
2023/09/03 17:02:46;;;;;;;1.60;1.50;;;22.20;40.30;;;;;;4981338;28;20205;-93
2023/09/03 17:05:15;;;;;;;1.60;1.50;;;22.10;41.20;;;;;;4986286;28;20211;-93
2023/09/03 17:07:43;;;;;;;1.67;1.58;;;22.10;44.00;;;;;;4983920;28;20224;-92
2023/09/03 17:10:10;;;;;;;3.42;1.73;;;22.00;46.00;;;;;;4975889;28;20234;-92
2023/09/03 17:12:37;;;;;;;2.75;1.60;;;21.90;47.10;;;;;;4979710;28;20207;-92
2023/09/03 17:15:05;;;;;;;1.77;1.50;;;21.80;49.40;;;;;;4981662;28;20212;-92
2023/09/03 17:17:33;;;;;;;2.08;1.73;;;21.70;48.40;;;;;;4978811;28;20225;-92
2023/09/03 17:20:00;;;;;;;1.73;1.55;;;21.80;48.90;;;;;;4985708;28;20201;-93
2023/09/03 17:22:29;;;;;;;1.55;1.45;;;21.70;48.90;;;;;;4985263;28;20213;-93
2023/09/03 17:25:15;;;;;;;2.08;1.75;;;21.70;51.50;;;;;;4976144;28;20211;-93
2023/09/03 17:27:42;;;;;;;1.70;1.60;;;21.50;55.40;;;;;;4974525;28;20201;-92
2023/09/03 17:30:10;;;;;;;2.20;1.85;;;21.50;57.30;;;;;;4971811;28;20208;-93
2023/09/03 17:35:18;;;;;;;2.95;1.80;;;21.40;57.20;;;;;;4981048;28;20711;-92
2023/09/03 17:37:48;;;;;;;1.80;1.70;;;21.30;57.10;;;;;;4978549;28;20221;-93
2023/09/03 17:40:17;;;;;;;1.85;1.50;;;21.20;57.00;;;;;;4983616;28;20212;-93
2023/09/03 17:42:44;;;;;;;1.83;1.60;;;21.20;57.00;;;;;;4980991;28;20217;-92
2023/09/03 17:45:11;;;;;;;2.00;1.80;;;21.10;56.90;;;;;;4968510;28;20210;-93
2023/09/03 17:47:42;;;;;;;2.15;1.70;;;21.00;61.50;;;;;;4985362;28;20260;-93
2023/09/03 17:50:09;;;;;;;2.28;1.90;;;21.00;63.00;;;;;;4989396;28;20204;-93
2023/09/03 17:52:36;;;;;;;4.20;2.40;;;20.80;65.20;;;;;;4991767;28;20260;-93
2023/09/03 17:55:20;;;;;;;2.22;1.92;;;20.80;67.00;;;;;;4992252;28;20224;-92
2023/09/03 17:57:48;;;;;;;3.17;1.83;;;20.70;68.80;;;;;;4992011;28;20211;-93
2023/09/03 18:00:15;;;;;;;4.75;1.95;;;20.70;70.00;;;;;;4990351;28;20207;-92
2023/09/03 18:02:42;;;;;;;2.13;1.92;;;20.60;71.40;;;;;;4988511;28;20216;-93
2023/09/03 18:05:16;;;;;;;3.17;2.35;;;20.40;74.70;;;;;;4986232;28;20204;-94
2023/09/03 18:07:42;;;;;;;2.60;2.40;;;20.30;77.00;;;;;;4985688;28;20276;-93
2023/09/03 18:10:12;;;;;;;1.92;1.83;;;20.20;78.30;;;;;;4982017;28;20277;-92
2023/09/03 18:12:39;;;;;;;2.15;1.95;;;20.20;79.40;;;;;;4983928;28;20204;-92
2023/09/03 18:15:07;;;;;;;4.10;2.08;;;20.10;80.90;;;;;;4985954;28;20252;-93
2023/09/03 18:17:34;;;;;;;2.45;2.00;;;20.10;80.90;;;;;;4985810;28;20223;-93
2023/09/03 18:20:01;;;;;;;2.53;2.08;;;20.10;80.90;;;;;;5067917;23;20232;-92
2023/09/03 18:22:28;;;;;;;3.50;2.50;;;20.10;82.70;;;;;;4993138;28;20200;-94
2023/09/03 18:24:54;;;;;;;3.63;2.72;;;20.20;84.40;;;;;;4981159;28;20212;-94
2023/09/03 18:27:23;;;;;;;4.80;3.13;;;20.10;84.80;;;;;;4976641;28;20209;-93
2023/09/03 18:29:50;;;;;;;4.72;3.20;;;19.90;85.50;;;;;;4981775;28;20255;-94
2023/09/03 18:32:17;;;;;;;5.95;3.05;;;19.80;86.80;;;;;;4981348;28;20385;-93
2023/09/03 18:37:20;;;;;;;3.85;2.58;;;19.80;90.10;;;;;;5698584;23;20232;-92
2023/09/03 18:39:49;;;;;;;4.40;2.75;;;19.80;90.10;;;;;;4983755;28;20201;-93
2023/09/03 18:42:19;;;;;;;3.90;2.53;;;19.80;90.50;;;;;;4983080;28;20204;-93
2023/09/03 18:44:47;;;;;;;3.22;2.38;;;19.70;90.40;;;;;;4995460;28;20181;-94
2023/09/03 18:47:14;;;;;;;3.85;2.30;;;19.60;91.00;;;;;;4990573;28;20679;-94
2023/09/03 18:49:41;;;;;;;5.28;2.20;;;19.50;91.40;;;;;;4978190;28;20207;-94
2023/09/03 18:52:08;;;;;;;3.25;2.40;;;19.40;91.80;;;;;;4978230;28;20228;-95
2023/09/03 18:54:34;;;;;;;3.08;2.50;;;19.30;92.30;;;;;;4977447;28;20283;-94
2023/09/03 18:57:02;;;;;;;3.05;2.20;;;19.20;92.40;;;;;;4993230;28;20247;-93
2023/09/03 18:59:29;;;;;;;3.30;2.40;;;19.10;92.60;;;;;;4998486;28;20204;-95
2023/09/03 19:01:57;;;;;;;2.67;2.33;;;19.10;92.90;;;;;;4993963;28;20196;-93
2023/09/03 19:04:24;;;;;;;2.83;2.47;;;19.10;93.60;;;;;;4984390;28;20209;-94
2023/09/03 19:06:57;;;;;;;2.95;2.60;;;19.00;93.50;;;;;;4983980;28;20192;-93
2023/09/03 19:09:27;;;;;;;2.53;2.33;;;19.00;93.90;;;;;;4971613;28;20212;-94
2023/09/03 19:11:54;;;;;;;3.22;2.70;;;19.00;94.00;;;;;;4973961;28;20211;-94
2023/09/03 19:14:22;;;;;;;5.55;2.40;;;19.00;94.20;;;;;;4989943;28;20204;-93
2023/09/03 19:16:48;;;;;;;3.65;2.80;;;19.00;94.30;;;;;;5006706;28;20203;-95
2023/09/03 19:19:22;;;;;;;5.18;3.13;;;19.00;94.30;;;;;;4992538;28;20232;-94
2023/09/03 19:21:50;;;;;;;3.88;3.10;;;18.80;94.50;;;;;;4982425;28;20195;-96
2023/09/03 19:24:16;;;;;;;3.17;2.88;;;18.70;94.90;;;;;;4989689;28;20280;-94
2023/09/03 19:26:44;;;;;;;3.33;3.03;;;18.60;95.20;;;;;;4979862;28;20211;-91
2023/09/03 19:29:11;;;;;;;5.18;3.00;;;18.50;95.70;;;;;;4993460;28;20208;-95
2023/09/03 19:31:37;;;;;;;3.17;2.88;;;18.50;96.00;;;;;;4988428;28;20212;-94
2023/09/03 19:34:05;;;;;;;4.72;3.20;;;18.40;96.30;;;;;;4978361;28;20264;-94
2023/09/03 19:36:34;;;;;;;3.28;2.97;;;18.40;96.40;;;;;;4980182;28;20212;-94
2023/09/03 19:39:00;;;;;;;4.55;2.90;;;18.40;96.70;;;;;;4984460;28;20216;-94
2023/09/03 19:41:27;;;;;;;5.00;3.17;;;18.30;96.70;;;;;;4987594;28;20207;-94
2023/09/03 19:43:54;;;;;;;3.67;2.85;;;18.30;96.80;;;;;;4980123;28;20200;-94
2023/09/03 19:46:21;;;;;;;4.93;3.22;;;18.30;96.80;;;;;;4987449;28;20259;-95
2023/09/03 19:48:48;;;;;;;3.55;3.15;;;18.30;96.90;;;;;;4982289;28;20268;-94
2023/09/03 19:51:15;;;;;;;3.80;3.40;;;18.30;96.90;;;;;;4975835;28;20220;-94
2023/09/03 19:56:24;;;;;;;4.07;3.30;;;18.30;97.20;;;;;;4982937;28;20228;-95
2023/09/03 19:58:51;;;;;;;4.03;3.20;;;18.20;97.70;;;;;;4984676;28;20284;-94
2023/09/03 20:01:20;;;;;;;6.43;3.70;;;18.10;97.60;;;;;;4983879;28;20204;-94
2023/09/03 20:03:48;;;;;;;4.38;3.38;;;18.10;97.60;;;;;;4982485;28;20211;-93
2023/09/03 20:06:15;;;;;;;3.28;2.97;;;18.00;97.60;;;;;;4987879;28;20204;-96
2023/09/03 20:08:44;;;;;;;3.15;2.85;;;18.10;97.90;;;;;;4983722;28;20204;-94
2023/09/03 20:11:15;;;;;;;3.47;2.85;;;18.20;97.70;;;;;;4985975;28;20187;-95
2023/09/03 20:13:42;;;;;;;3.60;3.08;;;18.20;97.70;;;;;;4980179;28;20205;-95
2023/09/03 20:16:09;;;;;;;3.75;2.80;;;18.20;97.70;;;;;;4986601;28;20263;-95
2023/09/03 20:18:36;;;;;;;5.65;3.13;;;18.10;97.60;;;;;;4988352;28;20280;-95
2023/09/03 20:23:38;;;;;;;3.17;2.72;;;18.20;97.50;;;;;;5074542;23;20251;-95
2023/09/03 20:28:42;;;;;;;3.92;3.03;;;18.20;97.00;;;;;;5802115;23;20239;-96
2023/09/03 20:51:56;;;;;;;3.10;2.80;;;18.00;97.00;;;;;;5011153;28;20235;-94
2023/09/03 20:54:24;;;;;;;3.65;3.33;;;18.00;97.30;;;;;;5003766;28;20548;-94
2023/09/03 20:56:52;;;;;;;4.15;3.10;;;18.10;96.80;;;;;;5011485;28;20243;-94
2023/09/03 20:59:19;;;;;;;5.47;2.97;;;18.10;96.90;;;;;;5010860;28;20219;-94
2023/09/03 21:01:45;;;;;;;3.33;2.80;;;17.90;97.30;;;;;;5013147;28;20214;-94
2023/09/03 21:04:12;;;;;;;4.72;4.18;;;17.70;97.50;;;;;;5010659;28;20223;-95
2023/09/03 21:06:40;;;;;;;5.00;4.50;;;17.70;97.50;;;;;;5010805;28;20218;-94
2023/09/03 21:11:41;;;;;;;3.28;2.97;;;17.40;98.30;;;;;;5014384;28;20212;-96
2023/09/03 21:14:09;;;;;;;4.13;3.50;;;17.30;98.90;;;;;;5013778;28;20200;-96
2023/09/03 21:16:37;;;;;;;3.92;3.10;;;17.20;99.50;;;;;;5010712;28;20264;-96
2023/09/03 21:19:04;;;;;;;3.45;3.10;;;17.10;99.90;;;;;;5015161;28;20224;-96
2023/09/03 21:21:34;;;;;;;4.20;3.28;;;17.00;99.90;;;;;;4993711;28;20185;-96
2023/09/03 21:24:02;;;;;;;3.53;3.03;;;16.90;99.90;;;;;;5015360;28;20234;-95
2023/09/03 21:26:29;;;;;;;4.63;3.30;;;16.90;99.90;;;;;;5010476;28;20188;-95
2023/09/03 21:28:57;;;;;;;3.20;2.63;;;16.90;99.90;;;;;;5009271;28;20230;-96
2023/09/03 21:31:24;;;;;;;3.28;2.90;;;16.90;99.90;;;;;;4990914;28;20231;-96
2023/09/03 21:33:51;;;;;;;3.60;3.20;;;16.90;99.90;;;;;;5000664;28;20244;-95
2023/09/03 21:36:18;;;;;;;3.85;2.95;;;16.90;99.90;;;;;;5000197;28;20207;-96
2023/09/03 21:38:46;;;;;;;4.70;3.00;;;16.90;99.90;;;;;;5011947;28;20212;-95
